Roald Amundsen — DARG — position and weather

sailwx.info

Track history (hours):
 
Tides and Currents Weather Stations Pressure Air Temp Water Temp Dewpoint Dewpoint Depression Visibility Wind Speed Wind Dir Waves Ship Positions

Roald Amundsen (Germany)

Built as a deep sea lugger in 1952. Converted and rigged as a traditional brig in 1992.

Ship's website: http://www.sailtraining.de/

Last reported at 2017-Jun-26 12:00 UTC. Time now 2017-Jun-26 12:02 UTC.
Position N 54°30' E 010°24'.

Length 50 m; beam 7.4 m; draft 4.5 m.

Type: Sailing vessel. MMSI: 211215170.

Date/timePositionNaut miles runAvg speedWind from/ knotsBaromVisibWave heightAir tempDewpointWater temp
2017-Jun-26 12:00N 54°30' E 010°24'3 6.7
2017-Jun-26 11:30N 54°28' E 010°19'4 7.0
2017-Jun-26 11:00N 54°26' E 010°14'3 6.2
2017-Jun-26 10:30N 54°23' E 010°12'3 6.0
2017-Jun-26 10:00N 54°20' E 010°10'1 2.3
2017-Jun-26 09:28N 54°19' E 010°09'0 0.0
2017-Jun-26 08:52N 54°19' E 010°09'0 0.0
2017-Jun-26 08:22N 54°19' E 010°09'0 0.0
2017-Jun-26 07:58N 54°19' E 010°09'0 0.0
2017-Jun-26 07:28N 54°19' E 010°09'0 0.0
2017-Jun-26 06:55N 54°19' E 010°09'0 0.0
2017-Jun-26 06:28N 54°19' E 010°09'0 0.0
2017-Jun-26 01:10N 54°19' E 010°09'0 0.0
2017-Jun-26 00:40N 54°19' E 010°09'0 0.0
2017-Jun-26 00:28N 54°19' E 010°09'0 0.0
2017-Jun-25 23:58N 54°19' E 010°09'0 0.0
2017-Jun-25 23:22N 54°19' E 010°09'0 0.0
2017-Jun-25 22:58N 54°19' E 010°09'0 0.0
2017-Jun-25 22:22N 54°19' E 010°09'0 0.0
2017-Jun-25 21:46N 54°19' E 010°09'0 0.0
2017-Jun-25 21:22N 54°19' E 010°09'0 0.0
2017-Jun-25 20:55N 54°19' E 010°09'0 0.0
2017-Jun-25 20:28N 54°19' E 010°09'0 0.0
2017-Jun-25 19:58N 54°19' E 010°09'0 0.0
2017-Jun-25 19:28N 54°19' E 010°09'0 0.0
2017-Jun-25 18:58N 54°19' E 010°09'0 0.0
2017-Jun-25 18:28N 54°19' E 010°09'0 0.0
2017-Jun-25 17:58N 54°19' E 010°09'0 0.0
2017-Jun-25 17:28N 54°19' E 010°09'0 0.0
2017-Jun-25 16:52N 54°19' E 010°09'0 0.0
2017-Jun-25 16:28N 54°19' E 010°09'0 0.0
2017-Jun-25 15:52N 54°19' E 010°09'0 0.0
2017-Jun-25 15:28N 54°19' E 010°09'0 0.0
2017-Jun-25 14:52N 54°19' E 010°09'0 0.0
2017-Jun-25 13:58N 54°19' E 010°09'0 0.0
2017-Jun-25 13:28N 54°19' E 010°09'0 0.0
2017-Jun-25 12:58N 54°19' E 010°09'0 0.0
2017-Jun-25 12:13N 54°19' E 010°09'0 0.0
2017-Jun-25 11:52N 54°19' E 010°09'0 0.0
2017-Jun-25 11:28N 54°19' E 010°09'0 0.0
2017-Jun-25 10:58N 54°19' E 010°09'0 0.0
2017-Jun-25 01:01N 54°19' E 010°09'0 0.0
2017-Jun-25 00:55N 54°19' E 010°09'0 0.0
2017-Jun-25 00:28N 54°19' E 010°09'0 0.0
2017-Jun-24 23:58N 54°19' E 010°09'0 0.0
2017-Jun-24 23:28N 54°19' E 010°09'0 0.0
2017-Jun-24 22:55N 54°19' E 010°09'0 0.0
2017-Jun-24 22:22N 54°19' E 010°09'0 0.0
2017-Jun-24 21:52N 54°19' E 010°09'0 0.0
2017-Jun-24 21:28N 54°19' E 010°09'0 0.0
2017-Jun-24 20:58N 54°19' E 010°09'0 0.0
2017-Jun-24 20:19N 54°19' E 010°09'0 0.0
2017-Jun-24 19:58N 54°19' E 010°09'0 0.0
2017-Jun-24 19:28N 54°19' E 010°09'0 0.0
2017-Jun-24 18:58N 54°19' E 010°09'0 0.0
2017-Jun-24 18:22N 54°19' E 010°09'0 0.0
2017-Jun-24 17:28N 54°19' E 010°09'0 0.0
2017-Jun-24 16:58N 54°19' E 010°09'0 0.0
2017-Jun-24 16:28N 54°19' E 010°09'0 0.0
2017-Jun-24 15:58N 54°19' E 010°09'0 0.0
2017-Jun-24 15:25N 54°19' E 010°09'0 0.0
2017-Jun-24 14:58N 54°19' E 010°09'0 0.0
2017-Jun-24 14:00N 54°19' E 010°09'0 0.8
2017-Jun-24 13:30N 54°20' E 010°09'2 3.6
2017-Jun-24 13:01N 54°21' E 010°10'  
2017-Jun-21 12:12N 54°25' E 010°13'1 3.8
2017-Jun-21 12:00N 54°25' E 010°13'2 3.8
2017-Jun-21 11:30N 54°23' E 010°11'0 0.5
2017-Jun-21 10:48N 54°23' E 010°10'0 0.0
2017-Jun-21 10:30N 54°23' E 010°10'0 0.0
2017-Jun-21 10:00N 54°23' E 010°10'0 0.1
2017-Jun-21 09:30N 54°23' E 010°10'2 4.3
2017-Jun-21 09:00N 54°21' E 010°10'2 3.7
2017-Jun-21 08:29N 54°19' E 010°09'0 0.0
2017-Jun-21 07:41N 54°19' E 010°09'0 0.0
2017-Jun-21 07:29N 54°19' E 010°09'0 0.0
2017-Jun-21 06:44N 54°19' E 010°09'0 0.0
2017-Jun-21 06:29N 54°19' E 010°09'0 0.0
2017-Jun-21 05:59N 54°19' E 010°09'0 0.0
2017-Jun-21 05:11N 54°19' E 010°09'0 0.0
2017-Jun-21 04:53N 54°19' E 010°09'0 0.0
2017-Jun-21 04:17N 54°19' E 010°09'0 0.0
2017-Jun-21 03:53N 54°19' E 010°09'0 0.0
2017-Jun-21 03:23N 54°19' E 010°09'0 0.0
2017-Jun-21 02:53N 54°19' E 010°09'0 0.0
2017-Jun-21 02:29N 54°19' E 010°09'0 0.0
2017-Jun-21 01:56N 54°19' E 010°09'0 0.0
2017-Jun-21 01:29N 54°19' E 010°09'0 0.0
2017-Jun-21 00:59N 54°19' E 010°09'0 0.0
2017-Jun-21 00:29N 54°19' E 010°09'0 0.0
2017-Jun-20 23:59N 54°19' E 010°09'0 0.0
2017-Jun-20 23:23N 54°19' E 010°09'0 0.0
2017-Jun-20 22:59N 54°19' E 010°09'0 0.0
2017-Jun-20 22:29N 54°19' E 010°09'0 0.0
2017-Jun-20 21:53N 54°19' E 010°09'0 0.0
2017-Jun-20 21:29N 54°19' E 010°09'0 0.0
2017-Jun-20 20:56N 54°19' E 010°09'0 0.0
2017-Jun-20 20:29N 54°19' E 010°09'0 0.0
2017-Jun-20 19:59N 54°19' E 010°09'0 0.0
2017-Jun-20 19:29N 54°19' E 010°09'0 0.0
2017-Jun-20 18:56N 54°19' E 010°09'0 0.0
2017-Jun-20 18:29N 54°19' E 010°09'0 0.0
2017-Jun-20 17:59N 54°19' E 010°09'0 0.0
2017-Jun-20 17:29N 54°19' E 010°09'0 0.0
2017-Jun-20 16:59N 54°19' E 010°09'  
Track history (hours):
 
Tides and Currents Weather Stations Pressure Air Temp Water Temp Dewpoint Dewpoint Depression Visibility Wind Speed Wind Dir Waves Ship Positions

Roald Amundsen (Germany)

Built as a deep sea lugger in 1952. Converted and rigged as a traditional brig in 1992.

Ship's website: http://www.sailtraining.de/

Last reported at 2017-Jun-26 12:00 UTC. Time now 2017-Jun-26 12:02 UTC.
Position N 54°30' E 010°24'.

Length 50 m; beam 7.4 m; draft 4.5 m.

Type: Sailing vessel. MMSI: 211215170.

Date/timePositionNaut miles runAvg speedWind from/ knotsBaromVisibWave heightAir tempDewpointWater temp
2017-Jun-26 12:00N 54°30' E 010°24'3 6.7
2017-Jun-26 11:30N 54°28' E 010°19'4 7.0
2017-Jun-26 11:00N 54°26' E 010°14'3 6.2
2017-Jun-26 10:30N 54°23' E 010°12'3 6.0
2017-Jun-26 10:00N 54°20' E 010°10'1 2.3
2017-Jun-26 09:28N 54°19' E 010°09'0 0.0
2017-Jun-26 08:52N 54°19' E 010°09'0 0.0
2017-Jun-26 08:22N 54°19' E 010°09'0 0.0
2017-Jun-26 07:58N 54°19' E 010°09'0 0.0
2017-Jun-26 07:28N 54°19' E 010°09'0 0.0
2017-Jun-26 06:55N 54°19' E 010°09'0 0.0
2017-Jun-26 06:28N 54°19' E 010°09'0 0.0
2017-Jun-26 01:10N 54°19' E 010°09'0 0.0
2017-Jun-26 00:40N 54°19' E 010°09'0 0.0
2017-Jun-26 00:28N 54°19' E 010°09'0 0.0
2017-Jun-25 23:58N 54°19' E 010°09'0 0.0
2017-Jun-25 23:22N 54°19' E 010°09'0 0.0
2017-Jun-25 22:58N 54°19' E 010°09'0 0.0
2017-Jun-25 22:22N 54°19' E 010°09'0 0.0
2017-Jun-25 21:46N 54°19' E 010°09'0 0.0
2017-Jun-25 21:22N 54°19' E 010°09'0 0.0
2017-Jun-25 20:55N 54°19' E 010°09'0 0.0
2017-Jun-25 20:28N 54°19' E 010°09'0 0.0
2017-Jun-25 19:58N 54°19' E 010°09'0 0.0
2017-Jun-25 19:28N 54°19' E 010°09'0 0.0
2017-Jun-25 18:58N 54°19' E 010°09'0 0.0
2017-Jun-25 18:28N 54°19' E 010°09'0 0.0
2017-Jun-25 17:58N 54°19' E 010°09'0 0.0
2017-Jun-25 17:28N 54°19' E 010°09'0 0.0
2017-Jun-25 16:52N 54°19' E 010°09'0 0.0
2017-Jun-25 16:28N 54°19' E 010°09'0 0.0
2017-Jun-25 15:52N 54°19' E 010°09'0 0.0
2017-Jun-25 15:28N 54°19' E 010°09'0 0.0
2017-Jun-25 14:52N 54°19' E 010°09'0 0.0
2017-Jun-25 13:58N 54°19' E 010°09'0 0.0
2017-Jun-25 13:28N 54°19' E 010°09'0 0.0
2017-Jun-25 12:58N 54°19' E 010°09'0 0.0
2017-Jun-25 12:13N 54°19' E 010°09'0 0.0
2017-Jun-25 11:52N 54°19' E 010°09'0 0.0
2017-Jun-25 11:28N 54°19' E 010°09'0 0.0
2017-Jun-25 10:58N 54°19' E 010°09'0 0.0
2017-Jun-25 01:01N 54°19' E 010°09'0 0.0
2017-Jun-25 00:55N 54°19' E 010°09'0 0.0
2017-Jun-25 00:28N 54°19' E 010°09'0 0.0
2017-Jun-24 23:58N 54°19' E 010°09'0 0.0
2017-Jun-24 23:28N 54°19' E 010°09'0 0.0
2017-Jun-24 22:55N 54°19' E 010°09'0 0.0
2017-Jun-24 22:22N 54°19' E 010°09'0 0.0
2017-Jun-24 21:52N 54°19' E 010°09'0 0.0
2017-Jun-24 21:28N 54°19' E 010°09'0 0.0
2017-Jun-24 20:58N 54°19' E 010°09'0 0.0
2017-Jun-24 20:19N 54°19' E 010°09'0 0.0
2017-Jun-24 19:58N 54°19' E 010°09'0 0.0
2017-Jun-24 19:28N 54°19' E 010°09'0 0.0
2017-Jun-24 18:58N 54°19' E 010°09'0 0.0
2017-Jun-24 18:22N 54°19' E 010°09'0 0.0
2017-Jun-24 17:28N 54°19' E 010°09'0 0.0
2017-Jun-24 16:58N 54°19' E 010°09'0 0.0
2017-Jun-24 16:28N 54°19' E 010°09'0 0.0
2017-Jun-24 15:58N 54°19' E 010°09'0 0.0
2017-Jun-24 15:25N 54°19' E 010°09'0 0.0
2017-Jun-24 14:58N 54°19' E 010°09'0 0.0
2017-Jun-24 14:00N 54°19' E 010°09'0 0.8
2017-Jun-24 13:30N 54°20' E 010°09'2 3.6
2017-Jun-24 13:01N 54°21' E 010°10'  
2017-Jun-21 12:12N 54°25' E 010°13'1 3.8
2017-Jun-21 12:00N 54°25' E 010°13'2 3.8
2017-Jun-21 11:30N 54°23' E 010°11'0 0.5
2017-Jun-21 10:48N 54°23' E 010°10'0 0.0
2017-Jun-21 10:30N 54°23' E 010°10'0 0.0
2017-Jun-21 10:00N 54°23' E 010°10'0 0.1
2017-Jun-21 09:30N 54°23' E 010°10'2 4.3
2017-Jun-21 09:00N 54°21' E 010°10'2 3.7
2017-Jun-21 08:29N 54°19' E 010°09'0 0.0
2017-Jun-21 07:41N 54°19' E 010°09'0 0.0
2017-Jun-21 07:29N 54°19' E 010°09'0 0.0
2017-Jun-21 06:44N 54°19' E 010°09'0 0.0
2017-Jun-21 06:29N 54°19' E 010°09'0 0.0
2017-Jun-21 05:59N 54°19' E 010°09'0 0.0
2017-Jun-21 05:11N 54°19' E 010°09'0 0.0
2017-Jun-21 04:53N 54°19' E 010°09'0 0.0
2017-Jun-21 04:17N 54°19' E 010°09'0 0.0
2017-Jun-21 03:53N 54°19' E 010°09'0 0.0
2017-Jun-21 03:23N 54°19' E 010°09'0 0.0
2017-Jun-21 02:53N 54°19' E 010°09'0 0.0
2017-Jun-21 02:29N 54°19' E 010°09'0 0.0
2017-Jun-21 01:56N 54°19' E 010°09'0 0.0
2017-Jun-21 01:29N 54°19' E 010°09'0 0.0
2017-Jun-21 00:59N 54°19' E 010°09'0 0.0
2017-Jun-21 00:29N 54°19' E 010°09'0 0.0
2017-Jun-20 23:59N 54°19' E 010°09'0 0.0
2017-Jun-20 23:23N 54°19' E 010°09'0 0.0
2017-Jun-20 22:59N 54°19' E 010°09'0 0.0
2017-Jun-20 22:29N 54°19' E 010°09'0 0.0
2017-Jun-20 21:53N 54°19' E 010°09'0 0.0
2017-Jun-20 21:29N 54°19' E 010°09'0 0.0
2017-Jun-20 20:56N 54°19' E 010°09'0 0.0
2017-Jun-20 20:29N 54°19' E 010°09'0 0.0
2017-Jun-20 19:59N 54°19' E 010°09'0 0.0
2017-Jun-20 19:29N 54°19' E 010°09'0 0.0
2017-Jun-20 18:56N 54°19' E 010°09'0 0.0
2017-Jun-20 18:29N 54°19' E 010°09'0 0.0
2017-Jun-20 17:59N 54°19' E 010°09'0 0.0
2017-Jun-20 17:29N 54°19' E 010°09'0 0.0
2017-Jun-20 16:59N 54°19' E 010°09'  

Dump ship's entire track history